Time;durP1;ratioP1;P1;durP2;ratioP2;P2;SDS_P1;SDS_P2;PMS_P1;PMS_P2;Temp;Humidity;BMP_temperature;BMP_pressure;BME280_temperature;BME280_humidity;BME280_pressure;Samples;Min_cycle;Max_cycle;Signal;HPM_P1;HPM_P2
2021/05/04 00:02:12;;;;;;;4.60;2.60;;;13.30;45.10;;;;;;4991877;28;20109;-91
2021/05/04 00:04:38;;;;;;;3.40;2.47;;;13.30;45.10;;;;;;4994397;28;20030;-91
2021/05/04 00:07:03;;;;;;;5.10;2.78;;;13.30;45.30;;;;;;4993839;28;20018;-90
2021/05/04 00:09:29;;;;;;;2.90;2.05;;;13.30;45.30;;;;;;4992348;28;20034;-88
2021/05/04 00:11:55;;;;;;;2.50;2.00;;;13.40;45.10;;;;;;4993261;28;20014;-90
2021/05/04 00:14:20;;;;;;;5.63;2.30;;;13.40;45.10;;;;;;4989155;28;20025;-91
2021/05/04 00:16:46;;;;;;;2.47;2.08;;;13.40;45.00;;;;;;4990421;28;20054;-88
2021/05/04 00:19:12;;;;;;;5.65;2.38;;;13.40;45.10;;;;;;4993205;28;20015;-90
2021/05/04 00:21:38;;;;;;;5.13;2.45;;;13.40;45.40;;;;;;4993796;28;20025;-90
2021/05/04 00:24:05;;;;;;;3.92;1.60;;;13.40;45.50;;;;;;4990393;28;20035;-90
2021/05/04 00:26:31;;;;;;;2.97;1.98;;;13.40;45.90;;;;;;5002688;28;20549;-91
2021/05/04 00:28:57;;;;;;;3.00;2.20;;;13.40;46.10;;;;;;4991798;28;20022;-91
2021/05/04 00:31:22;;;;;;;3.83;2.00;;;13.40;46.10;;;;;;4997784;28;20088;-92
2021/05/04 00:33:48;;;;;;;3.88;1.90;;;13.40;46.30;;;;;;4993850;28;20022;-89
2021/05/04 00:36:13;;;;;;;3.95;1.90;;;13.40;46.70;;;;;;4992436;28;20076;-88
2021/05/04 00:38:39;;;;;;;4.55;1.85;;;13.30;47.40;;;;;;4998829;28;20085;-92
2021/05/04 00:41:05;;;;;;;3.58;2.10;;;13.30;48.10;;;;;;4993994;28;20037;-92
2021/05/04 00:43:32;;;;;;;3.10;2.10;;;13.20;49.30;;;;;;4994998;28;20102;-91
2021/05/04 00:45:58;;;;;;;2.63;1.70;;;13.00;50.20;;;;;;4991789;28;20520;-92
2021/05/04 00:48:24;;;;;;;4.30;1.85;;;12.90;51.20;;;;;;4993627;28;20066;-92
2021/05/04 00:50:50;;;;;;;4.18;2.28;;;12.80;52.10;;;;;;4986553;28;20026;-92
2021/05/04 00:53:16;;;;;;;4.25;1.90;;;12.70;53.40;;;;;;4986173;28;20394;-92
2021/05/04 00:55:42;;;;;;;5.55;2.20;;;12.50;54.40;;;;;;4993632;28;20014;-90
2021/05/04 00:58:13;;;;;;;3.03;1.92;;;12.40;54.90;;;;;;4991636;28;20026;-91
2021/05/04 01:00:40;;;;;;;4.78;2.10;;;12.30;55.80;;;;;;4979486;28;20030;-91
2021/05/04 01:03:07;;;;;;;5.40;2.47;;;12.20;56.60;;;;;;4992360;28;20037;-90
2021/05/04 01:05:32;;;;;;;2.85;1.80;;;12.00;57.40;;;;;;4991653;28;20509;-90
2021/05/04 01:07:58;;;;;;;4.72;1.90;;;11.90;58.40;;;;;;4993119;28;20101;-92
2021/05/04 01:10:23;;;;;;;4.72;1.90;;;11.80;58.90;;;;;;4983323;28;20031;-92
2021/05/04 01:12:49;;;;;;;7.25;2.55;;;11.70;59.60;;;;;;4993153;28;20026;-91
2021/05/04 01:15:15;;;;;;;5.05;2.10;;;11.60;60.70;;;;;;4985360;28;20037;-91
2021/05/04 01:17:41;;;;;;;6.03;2.63;;;11.50;61.90;;;;;;4990786;28;20022;-91
2021/05/04 01:20:07;;;;;;;4.10;2.00;;;11.40;62.40;;;;;;4982278;28;20018;-91
2021/05/04 01:22:33;;;;;;;5.25;2.30;;;11.30;62.50;;;;;;4992815;28;20023;-92
2021/05/04 01:24:59;;;;;;;5.22;2.42;;;11.20;63.70;;;;;;4991942;28;20129;-92
2021/05/04 01:27:24;;;;;;;5.25;2.28;;;11.10;64.30;;;;;;4993175;28;20456;-92
2021/05/04 01:29:50;;;;;;;4.63;2.15;;;11.00;64.70;;;;;;4982647;28;20481;-92
2021/05/04 01:32:16;;;;;;;3.97;2.03;;;11.00;65.00;;;;;;4991391;28;20022;-90
2021/05/04 01:34:42;;;;;;;5.43;2.60;;;11.00;65.40;;;;;;4990504;28;20054;-90
2021/05/04 01:37:07;;;;;;;3.05;2.20;;;10.90;66.10;;;;;;4992865;28;20493;-90
2021/05/04 01:39:45;;;;;;;4.90;2.25;;;10.90;66.30;;;;;;4982644;28;20037;-91
2021/05/04 01:42:12;;;;;;;3.30;2.08;;;10.80;67.00;;;;;;4989224;28;20031;-89
2021/05/04 01:44:38;;;;;;;4.47;2.08;;;10.80;66.20;;;;;;4992628;28;20030;-91
2021/05/04 01:47:04;;;;;;;3.67;2.30;;;10.80;66.50;;;;;;4992161;28;20081;-91
2021/05/04 01:49:30;;;;;;;4.05;2.30;;;10.80;66.90;;;;;;4992760;28;20109;-89
2021/05/04 01:51:57;;;;;;;3.88;2.15;;;10.80;67.10;;;;;;4989508;28;20048;-91
2021/05/04 01:54:24;;;;;;;3.83;2.00;;;10.70;67.30;;;;;;4991567;28;20719;-91
2021/05/04 01:56:51;;;;;;;2.53;2.03;;;10.70;67.90;;;;;;4992601;28;20034;-90
2021/05/04 01:59:17;;;;;;;5.60;2.97;;;10.70;68.00;;;;;;4991033;28;20117;-90
2021/05/04 02:01:42;;;;;;;3.28;2.10;;;10.70;68.60;;;;;;4991034;28;20102;-90
2021/05/04 02:04:08;;;;;;;3.45;2.00;;;10.60;68.50;;;;;;4992249;28;20034;-90
2021/05/04 02:06:34;;;;;;;2.85;2.10;;;10.60;68.60;;;;;;4992491;28;20106;-90
2021/05/04 02:08:59;;;;;;;3.75;2.50;;;10.60;69.60;;;;;;4992431;28;20022;-90
2021/05/04 02:11:25;;;;;;;4.18;2.42;;;10.50;70.70;;;;;;4990219;28;20019;-90
2021/05/04 02:13:50;;;;;;;2.88;1.92;;;10.50;70.30;;;;;;4991371;28;20121;-89
2021/05/04 02:16:16;;;;;;;4.47;3.13;;;10.50;71.10;;;;;;4991936;28;20034;-91
2021/05/04 02:18:41;;;;;;;4.47;2.42;;;10.50;71.40;;;;;;4992343;28;20035;-89
2021/05/04 02:21:07;;;;;;;3.92;2.25;;;10.40;71.30;;;;;;4989242;28;20022;-91
2021/05/04 02:23:32;;;;;;;3.70;2.50;;;10.40;72.00;;;;;;4992395;28;20038;-91
2021/05/04 02:25:58;;;;;;;3.03;2.67;;;10.30;72.00;;;;;;4991586;28;20022;-92
2021/05/04 02:28:24;;;;;;;3.83;2.35;;;10.30;72.80;;;;;;4991620;28;20054;-92
2021/05/04 02:30:50;;;;;;;4.90;2.90;;;10.30;72.90;;;;;;4992273;28;20029;-92
2021/05/04 02:33:15;;;;;;;5.18;2.40;;;10.20;73.20;;;;;;4992557;28;20539;-92
2021/05/04 02:35:41;;;;;;;5.43;2.83;;;10.20;73.00;;;;;;4985422;28;20031;-92
2021/05/04 02:38:06;;;;;;;5.45;2.95;;;10.20;73.10;;;;;;4993742;28;20101;-93
2021/05/04 02:40:32;;;;;;;3.83;2.63;;;10.20;73.60;;;;;;4991140;28;20031;-90
2021/05/04 02:42:57;;;;;;;4.10;2.70;;;10.20;73.50;;;;;;4991430;28;20014;-90
2021/05/04 02:45:23;;;;;;;4.45;2.40;;;10.20;73.40;;;;;;4983593;28;20042;-90
2021/05/04 02:47:48;;;;;;;2.90;2.33;;;10.20;73.60;;;;;;4983106;28;20045;-90
2021/05/04 02:50:14;;;;;;;3.85;2.63;;;10.20;73.30;;;;;;4982041;28;20318;-89
2021/05/04 02:52:40;;;;;;;4.00;2.40;;;10.20;73.80;;;;;;4987460;28;20030;-90
2021/05/04 02:55:06;;;;;;;4.70;3.13;;;10.20;73.90;;;;;;4993972;28;20021;-90
2021/05/04 02:57:31;;;;;;;3.20;2.53;;;10.10;74.40;;;;;;4995371;28;20037;-90
2021/05/04 02:59:57;;;;;;;3.53;2.58;;;10.10;74.60;;;;;;4994552;28;20022;-90
2021/05/04 03:02:22;;;;;;;4.93;3.10;;;10.10;74.80;;;;;;4992571;28;20040;-91
2021/05/04 03:04:48;;;;;;;5.57;2.28;;;10.00;75.10;;;;;;4994484;28;20089;-92
2021/05/04 03:07:13;;;;;;;4.43;2.85;;;10.10;75.10;;;;;;4994568;28;20023;-92
2021/05/04 03:09:39;;;;;;;3.70;2.92;;;10.00;75.60;;;;;;4995400;28;20023;-92
2021/05/04 03:14:40;;;;;;;3.47;2.30;;;10.00;76.10;;;;;;5484824;23;20061;-90
2021/05/04 03:17:05;;;;;;;4.35;2.78;;;10.00;75.80;;;;;;4998083;28;20034;-92
2021/05/04 03:19:31;;;;;;;5.78;3.00;;;10.00;76.60;;;;;;5015394;28;20018;-91
2021/05/04 03:21:57;;;;;;;4.88;2.75;;;9.90;77.20;;;;;;5002872;28;20116;-91
2021/05/04 03:24:22;;;;;;;5.57;3.35;;;9.90;77.20;;;;;;5002765;28;20037;-89
2021/05/04 03:26:48;;;;;;;2.63;2.00;;;9.90;77.50;;;;;;4994939;28;20022;-90
2021/05/04 03:29:13;;;;;;;6.05;2.97;;;9.80;77.30;;;;;;4994512;28;20034;-90
2021/05/04 03:31:39;;;;;;;2.65;2.08;;;9.90;77.30;;;;;;4997564;28;20487;-90
2021/05/04 03:34:04;;;;;;;3.42;2.55;;;9.90;76.90;;;;;;5003028;28;20034;-91
2021/05/04 03:36:30;;;;;;;3.80;2.10;;;9.90;76.80;;;;;;5005875;28;20420;-92
2021/05/04 03:38:55;;;;;;;3.83;2.08;;;9.90;76.30;;;;;;4995364;28;20022;-92
2021/05/04 03:41:21;;;;;;;3.95;2.20;;;10.00;76.20;;;;;;4994738;28;20014;-91
2021/05/04 03:43:46;;;;;;;3.40;2.70;;;10.00;76.00;;;;;;4980920;28;20389;-91
2021/05/04 03:46:13;;;;;;;3.67;2.50;;;10.10;75.80;;;;;;4984448;28;20064;-90
2021/05/04 03:48:38;;;;;;;2.75;2.47;;;10.10;75.80;;;;;;5001588;28;20097;-91
2021/05/04 03:51:06;;;;;;;3.72;2.50;;;10.00;75.80;;;;;;5008595;28;20073;-91
2021/05/04 03:53:32;;;;;;;2.75;2.33;;;10.00;75.90;;;;;;4994585;28;20023;-90
2021/05/04 03:55:57;;;;;;;4.38;2.72;;;10.00;76.40;;;;;;4977230;28;20206;-91
2021/05/04 03:58:23;;;;;;;4.25;2.28;;;10.00;76.40;;;;;;4993885;28;20026;-90
2021/05/04 04:00:48;;;;;;;2.80;2.58;;;9.90;76.80;;;;;;4978353;28;20022;-91
2021/05/04 04:03:14;;;;;;;3.88;2.97;;;9.90;77.60;;;;;;4999486;28;20036;-89
2021/05/04 04:05:39;;;;;;;2.90;2.60;;;9.90;77.80;;;;;;4976412;28;20046;-91
2021/05/04 04:08:05;;;;;;;3.97;2.47;;;9.80;77.80;;;;;;4994286;28;20176;-92
2021/05/04 04:10:31;;;;;;;4.40;2.63;;;9.80;77.90;;;;;;5006042;28;20522;-91
2021/05/04 04:12:56;;;;;;;2.60;2.33;;;9.80;78.30;;;;;;4984960;28;20094;-91
2021/05/04 04:15:22;;;;;;;6.30;3.90;;;9.80;78.60;;;;;;4995286;28;20116;-91
2021/05/04 04:17:47;;;;;;;3.05;2.03;;;9.80;79.20;;;;;;4993827;28;20030;-90
2021/05/04 04:20:13;;;;;;;3.95;3.17;;;9.80;78.80;;;;;;5000188;28;20576;-90
2021/05/04 04:22:39;;;;;;;4.38;3.10;;;9.80;78.80;;;;;;4983328;28;20080;-89
2021/05/04 04:25:06;;;;;;;4.78;2.70;;;9.80;78.80;;;;;;5002354;28;20030;-89
2021/05/04 04:27:32;;;;;;;3.58;2.22;;;9.80;78.70;;;;;;5010104;28;20105;-88
2021/05/04 04:29:57;;;;;;;5.63;2.60;;;9.80;78.50;;;;;;5000096;28;20414;-93
2021/05/04 04:32:23;;;;;;;3.70;2.72;;;9.90;78.60;;;;;;4976550;28;20444;-93
2021/05/04 04:34:51;;;;;;;3.65;2.88;;;9.80;78.50;;;;;;4994391;28;20033;-92
2021/05/04 04:37:16;;;;;;;3.05;2.75;;;9.80;78.90;;;;;;4976814;28;20030;-92
2021/05/04 04:39:42;;;;;;;3.13;1.98;;;9.80;79.00;;;;;;4976035;28;20033;-92
2021/05/04 04:42:08;;;;;;;3.38;2.60;;;9.80;78.90;;;;;;4984338;28;20033;-92
2021/05/04 04:44:33;;;;;;;4.30;2.10;;;9.80;79.10;;;;;;4985520;28;20159;-90
2021/05/04 04:47:00;;;;;;;3.70;2.88;;;9.80;79.30;;;;;;4995031;28;20022;-92
2021/05/04 04:49:26;;;;;;;6.47;2.55;;;9.70;79.50;;;;;;4981608;28;20503;-92
2021/05/04 04:51:51;;;;;;;3.50;2.92;;;9.70;80.10;;;;;;5010608;28;20041;-91
2021/05/04 04:54:17;;;;;;;3.78;2.40;;;9.60;80.40;;;;;;4993405;28;20045;-92
2021/05/04 04:56:43;;;;;;;3.15;2.40;;;9.60;80.60;;;;;;4993405;28;20068;-92
2021/05/04 04:59:08;;;;;;;4.70;2.72;;;9.60;80.70;;;;;;5000824;28;20022;-92
2021/05/04 05:01:35;;;;;;;4.25;2.67;;;9.60;80.80;;;;;;4973711;28;20023;-92
2021/05/04 05:04:01;;;;;;;4.75;3.10;;;9.60;80.80;;;;;;4985501;28;20123;-93
2021/05/04 05:06:27;;;;;;;3.83;2.28;;;9.60;81.10;;;;;;4976013;28;20054;-92
2021/05/04 05:08:53;;;;;;;3.05;2.25;;;9.60;81.00;;;;;;4969412;28;20033;-92
2021/05/04 05:11:19;;;;;;;2.42;2.10;;;9.70;81.40;;;;;;4993154;28;20023;-92
2021/05/04 05:13:46;;;;;;;2.38;2.10;;;9.70;80.40;;;;;;4993295;28;20018;-90
2021/05/04 05:16:17;;;;;;;4.00;1.80;;;9.70;80.40;;;;;;4992942;28;20034;-92
2021/05/04 05:18:43;;;;;;;3.47;2.40;;;9.80;80.10;;;;;;4977214;28;20022;-93
2021/05/04 05:21:11;;;;;;;3.67;2.85;;;9.80;80.20;;;;;;4997425;28;20552;-92
2021/05/04 05:23:37;;;;;;;5.00;2.78;;;9.80;81.00;;;;;;4992447;28;20026;-91
2021/05/04 05:26:04;;;;;;;4.32;2.60;;;9.80;80.30;;;;;;4992636;28;20022;-89
2021/05/04 05:28:29;;;;;;;2.30;1.73;;;9.80;80.20;;;;;;4975782;28;20046;-87
2021/05/04 05:30:55;;;;;;;4.10;1.90;;;9.90;80.00;;;;;;4991874;28;20504;-88
2021/05/04 05:33:21;;;;;;;4.65;2.95;;;9.90;79.80;;;;;;4993988;28;20101;-88
2021/05/04 05:35:48;;;;;;;2.75;2.47;;;10.00;79.80;;;;;;4992659;28;20029;-89
2021/05/04 05:38:16;;;;;;;2.75;2.30;;;9.90;79.70;;;;;;4993109;28;20047;-90
2021/05/04 05:40:41;;;;;;;4.30;2.63;;;10.00;79.60;;;;;;4992552;28;20053;-91
2021/05/04 05:43:07;;;;;;;4.57;2.30;;;10.00;79.40;;;;;;4992321;28;20022;-92
2021/05/04 05:45:32;;;;;;;3.58;2.38;;;10.00;79.40;;;;;;4992562;28;20038;-92
2021/05/04 05:47:58;;;;;;;2.45;1.70;;;10.10;79.10;;;;;;4987594;28;20054;-93
2021/05/04 05:50:24;;;;;;;3.72;2.00;;;10.10;78.90;;;;;;4992885;28;20030;-93
2021/05/04 05:52:50;;;;;;;3.15;2.20;;;10.20;78.60;;;;;;4987501;28;20049;-94
2021/05/04 05:55:16;;;;;;;4.50;1.90;;;10.20;78.30;;;;;;5003592;28;20046;-94
2021/05/04 05:57:41;;;;;;;3.15;1.90;;;10.20;78.00;;;;;;4993036;28;20392;-90
2021/05/04 06:00:10;;;;;;;3.00;1.83;;;10.30;77.90;;;;;;4999362;28;20097;-89
2021/05/04 06:02:36;;;;;;;3.72;1.70;;;10.30;77.80;;;;;;4982885;28;20022;-89
2021/05/04 06:05:02;;;;;;;2.42;1.60;;;10.30;77.60;;;;;;4984402;28;20131;-89
2021/05/04 06:07:27;;;;;;;2.38;1.80;;;10.40;77.60;;;;;;4980546;28;20042;-90
2021/05/04 06:09:53;;;;;;;4.38;2.10;;;10.40;77.50;;;;;;4992210;28;20054;-90
2021/05/04 06:12:19;;;;;;;3.25;1.73;;;10.40;77.30;;;;;;4974337;28;20026;-90
2021/05/04 06:14:44;;;;;;;4.78;2.42;;;10.50;77.40;;;;;;4974011;28;20026;-90
2021/05/04 06:17:10;;;;;;;4.70;1.67;;;10.50;77.30;;;;;;4992870;28;20118;-90
2021/05/04 06:19:35;;;;;;;4.25;1.65;;;10.50;77.10;;;;;;4973764;28;20058;-90
2021/05/04 06:22:01;;;;;;;3.20;1.40;;;10.60;76.80;;;;;;5007498;28;20029;-89
2021/05/04 06:24:27;;;;;;;2.72;1.23;;;10.60;76.50;;;;;;5005168;28;20556;-90
2021/05/04 06:26:52;;;;;;;3.05;1.90;;;10.70;76.40;;;;;;4995908;28;20042;-89
2021/05/04 06:29:18;;;;;;;4.15;1.90;;;10.70;76.30;;;;;;4995534;28;20034;-87
2021/05/04 06:31:45;;;;;;;4.10;1.85;;;10.70;76.30;;;;;;4993695;28;20022;-88
2021/05/04 06:34:12;;;;;;;5.38;1.98;;;10.70;76.40;;;;;;4980305;28;20104;-88
2021/05/04 06:36:38;;;;;;;3.25;1.75;;;10.60;76.60;;;;;;4994647;28;20060;-89
2021/05/04 06:39:04;;;;;;;3.67;1.92;;;10.60;76.90;;;;;;4996842;28;20018;-88
2021/05/04 06:41:35;;;;;;;3.53;1.90;;;10.50;77.40;;;;;;5003353;28;20121;-88
2021/05/04 06:44:04;;;;;;;2.80;1.90;;;10.50;77.70;;;;;;4994045;28;20046;-87
2021/05/04 06:46:31;;;;;;;6.68;1.90;;;10.50;78.10;;;;;;4997377;28;20050;-89
2021/05/04 06:48:57;;;;;;;3.80;1.73;;;10.40;78.30;;;;;;4994203;28;20019;-87
2021/05/04 06:51:23;;;;;;;2.05;1.70;;;10.40;78.80;;;;;;4999486;28;20361;-88
2021/05/04 06:53:48;;;;;;;3.90;1.80;;;10.40;79.30;;;;;;4993753;28;20033;-88
2021/05/04 06:56:14;;;;;;;5.18;1.95;;;10.40;79.00;;;;;;4994613;28;20041;-88
2021/05/04 06:58:40;;;;;;;4.28;2.10;;;10.50;78.90;;;;;;4976720;28;20407;-89
2021/05/04 07:01:05;;;;;;;4.45;1.88;;;10.60;78.60;;;;;;5008723;28;20041;-92
2021/05/04 07:03:31;;;;;;;6.18;2.10;;;10.70;78.30;;;;;;5000151;28;20659;-90
2021/05/04 07:05:56;;;;;;;5.32;2.10;;;10.70;78.20;;;;;;4994531;28;20011;-89
2021/05/04 07:08:22;;;;;;;8.20;2.55;;;10.80;78.10;;;;;;4994498;28;20018;-88
2021/05/04 07:10:47;;;;;;;5.38;2.13;;;10.80;77.90;;;;;;4994411;28;20100;-90
2021/05/04 07:13:15;;;;;;;3.95;1.90;;;10.90;77.90;;;;;;4993696;28;20122;-91
2021/05/04 07:15:40;;;;;;;6.18;2.10;;;10.90;77.60;;;;;;4994172;28;20026;-92
2021/05/04 07:18:09;;;;;;;3.55;1.98;;;11.00;77.40;;;;;;4994375;28;20511;-91
2021/05/04 07:20:35;;;;;;;8.32;2.30;;;11.00;77.20;;;;;;4994668;28;20026;-91
2021/05/04 07:23:01;;;;;;;7.53;2.30;;;11.00;76.90;;;;;;4994159;28;20033;-91
2021/05/04 07:25:26;;;;;;;5.72;2.05;;;11.00;76.90;;;;;;4993835;28;20038;-91
2021/05/04 07:27:53;;;;;;;5.32;2.20;;;11.00;76.80;;;;;;4994372;28;20640;-91
2021/05/04 07:30:19;;;;;;;5.88;2.15;;;11.00;76.60;;;;;;4994397;28;20034;-89
2021/05/04 07:32:45;;;;;;;4.18;2.10;;;11.00;76.50;;;;;;4994034;28;20113;-90
2021/05/04 07:35:10;;;;;;;6.95;2.30;;;11.10;76.50;;;;;;4993666;28;20568;-90
2021/05/04 07:37:38;;;;;;;6.40;1.80;;;11.00;76.30;;;;;;4993657;28;20049;-90
2021/05/04 07:40:05;;;;;;;5.03;2.00;;;11.00;76.30;;;;;;4993838;28;20034;-90
2021/05/04 07:42:31;;;;;;;3.83;1.90;;;11.00;76.40;;;;;;5003830;28;20084;-89
2021/05/04 07:44:56;;;;;;;4.57;2.38;;;11.00;76.50;;;;;;4998231;28;20416;-89
2021/05/04 07:47:22;;;;;;;4.82;2.17;;;10.90;76.40;;;;;;5000614;28;20117;-89
2021/05/04 07:49:57;;;;;;;6.07;2.78;;;11.00;76.40;;;;;;4991041;28;20030;-91
2021/05/04 07:52:23;;;;;;;6.40;2.60;;;11.00;76.50;;;;;;4974190;28;20401;-91
2021/05/04 07:54:51;;;;;;;6.90;2.53;;;11.00;76.70;;;;;;5006474;28;20026;-91
2021/05/04 07:57:18;;;;;;;5.55;2.10;;;11.00;76.50;;;;;;4981615;28;20030;-89
2021/05/04 07:59:44;;;;;;;7.32;2.85;;;11.00;76.60;;;;;;4992387;28;20014;-91
2021/05/04 08:02:09;;;;;;;4.90;2.47;;;11.00;76.60;;;;;;4992373;28;20394;-90
2021/05/04 08:04:35;;;;;;;4.47;2.00;;;10.80;77.10;;;;;;4991727;28;20121;-89
2021/05/04 08:07:04;;;;;;;4.07;1.75;;;10.80;77.40;;;;;;4975463;28;20362;-89
2021/05/04 08:09:29;;;;;;;3.15;1.40;;;10.60;78.00;;;;;;4980048;28;20141;-91
2021/05/04 08:11:56;;;;;;;3.33;1.30;;;10.50;77.90;;;;;;4993223;28;20088;-89
2021/05/04 08:14:23;;;;;;;2.47;1.30;;;10.40;78.00;;;;;;4992292;28;20030;-89
2021/05/04 08:16:49;;;;;;;2.67;1.17;;;10.30;78.30;;;;;;4989947;28;20065;-87
2021/05/04 08:19:15;;;;;;;3.22;1.30;;;10.30;78.60;;;;;;4992032;28;20089;-89
2021/05/04 08:21:43;;;;;;;3.95;2.03;;;10.20;78.70;;;;;;4996894;28;20042;-90
2021/05/04 08:24:11;;;;;;;3.70;1.73;;;10.20;79.00;;;;;;4994008;28;20697;-89
2021/05/04 08:26:38;;;;;;;3.40;1.42;;;10.30;79.10;;;;;;4995936;28;20026;-89
2021/05/04 08:29:04;;;;;;;4.72;2.13;;;10.30;79.10;;;;;;4991294;28;20030;-90
2021/05/04 08:31:29;;;;;;;4.32;2.13;;;10.30;79.60;;;;;;4974335;28;20041;-87
2021/05/04 08:33:55;;;;;;;6.50;2.50;;;10.40;79.90;;;;;;4985598;28;20030;-90
2021/05/04 08:36:21;;;;;;;5.85;2.60;;;10.50;80.00;;;;;;4991923;28;20026;-89
2021/05/04 08:38:46;;;;;;;7.55;2.58;;;10.60;79.80;;;;;;4988870;28;20473;-88
2021/05/04 08:41:14;;;;;;;6.03;2.80;;;10.70;79.80;;;;;;4991819;28;20029;-89
2021/05/04 08:43:42;;;;;;;5.80;2.47;;;10.80;79.60;;;;;;4990920;28;20088;-89
2021/05/04 08:46:08;;;;;;;4.78;2.38;;;10.90;79.30;;;;;;4991049;28;20477;-88
2021/05/04 08:48:34;;;;;;;7.47;2.90;;;11.00;79.00;;;;;;4972797;28;20117;-89
2021/05/04 08:51:00;;;;;;;6.25;2.83;;;11.20;78.50;;;;;;4991486;28;20132;-88
2021/05/04 08:53:26;;;;;;;9.05;2.95;;;11.20;77.70;;;;;;4974718;28;20117;-89
2021/05/04 08:55:51;;;;;;;8.85;2.78;;;11.20;77.20;;;;;;4991448;28;20532;-88
2021/05/04 08:58:18;;;;;;;7.13;2.83;;;11.30;77.00;;;;;;4987954;28;20022;-90
2021/05/04 09:00:43;;;;;;;8.65;2.83;;;11.20;76.70;;;;;;4991507;28;20595;-91
2021/05/04 09:03:14;;;;;;;5.43;2.30;;;11.30;76.60;;;;;;4989439;28;20019;-92
2021/05/04 09:05:52;;;;;;;7.03;2.35;;;11.30;76.20;;;;;;4973694;28;20084;-90
2021/05/04 09:09:04;;;;;;;7.65;2.40;;;11.40;76.10;;;;;;4990258;28;20033;-90
2021/05/04 09:20:34;;;;;;;9.70;3.10;;;11.20;77.60;;;;;;4989457;28;20105;-88
2021/05/04 09:23:07;;;;;;;7.05;2.65;;;11.30;78.30;;;;;;4990181;28;20037;-88
2021/05/04 09:25:34;;;;;;;6.80;2.30;;;11.60;78.10;;;;;;4975000;28;20535;-90
2021/05/04 09:28:00;;;;;;;5.97;3.05;;;11.70;77.60;;;;;;4990040;28;20106;-89
2021/05/04 09:30:26;;;;;;;5.30;2.40;;;11.80;77.10;;;;;;4988229;28;20050;-90
2021/05/04 09:32:52;;;;;;;7.18;2.72;;;11.80;76.90;;;;;;4976922;28;20053;-89
2021/05/04 09:35:17;;;;;;;7.78;3.10;;;11.90;76.70;;;;;;5005706;28;20026;-95
2021/05/04 09:37:45;;;;;;;9.07;2.97;;;11.90;77.00;;;;;;4992450;28;20027;-94
2021/05/04 09:40:23;;;;;;;7.60;2.78;;;12.00;76.00;;;;;;4975165;28;20018;-93
2021/05/04 09:43:13;;;;;;;7.75;3.08;;;12.10;75.70;;;;;;4988266;28;20132;-92
2021/05/04 09:45:47;;;;;;;5.20;2.08;;;12.30;76.00;;;;;;4977347;28;20108;-91
2021/05/04 09:48:16;;;;;;;6.07;2.33;;;12.40;73.80;;;;;;4991278;28;20018;-93
2021/05/04 09:51:02;;;;;;;3.88;1.70;;;12.40;73.00;;;;;;4996524;28;20023;-92
2021/05/04 09:53:50;;;;;;;6.00;1.95;;;12.30;72.60;;;;;;4997032;28;20030;-91
2021/05/04 09:56:37;;;;;;;5.20;2.10;;;12.20;72.40;;;;;;4996475;28;20030;-91
2021/05/04 09:59:03;;;;;;;3.25;1.48;;;12.00;73.30;;;;;;4991569;28;20053;-91
2021/05/04 10:01:30;;;;;;;6.43;2.10;;;11.80;74.50;;;;;;5006389;28;20022;-90
2021/05/04 10:03:56;;;;;;;5.03;1.70;;;11.60;75.20;;;;;;5000178;28;20436;-91
2021/05/04 10:06:23;;;;;;;11.23;3.03;;;11.50;75.70;;;;;;5003900;28;20125;-90
2021/05/04 10:08:50;;;;;;;5.53;2.33;;;11.40;76.70;;;;;;5002082;28;20045;-90
2021/05/04 10:11:21;;;;;;;6.65;3.13;;;11.30;76.80;;;;;;5003741;28;20030;-92
2021/05/04 10:13:51;;;;;;;5.10;2.00;;;11.30;76.70;;;;;;5002674;28;20065;-93
2021/05/04 10:16:28;;;;;;;8.30;2.65;;;11.10;76.60;;;;;;5005769;28;20447;-93
2021/05/04 10:19:02;;;;;;;5.65;2.00;;;11.00;77.30;;;;;;5002993;28;20023;-92
2021/05/04 10:21:29;;;;;;;5.72;1.77;;;11.00;77.50;;;;;;5003553;28;20034;-93
2021/05/04 10:23:55;;;;;;;8.02;2.42;;;11.00;77.60;;;;;;5002825;28;20042;-93
2021/05/04 10:26:25;;;;;;;6.18;2.10;;;10.90;77.60;;;;;;5004410;28;20058;-92
2021/05/04 10:28:56;;;;;;;5.88;2.10;;;10.80;77.60;;;;;;5002763;28;20129;-93
2021/05/04 10:31:46;;;;;;;6.50;1.50;;;10.80;77.30;;;;;;5017218;28;20088;-92
2021/05/04 10:34:24;;;;;;;5.55;1.60;;;10.90;76.60;;;;;;4998720;28;20274;-94
2021/05/04 10:37:14;;;;;;;4.15;1.45;;;11.00;75.80;;;;;;5011552;28;20050;-95
2021/05/04 10:39:45;;;;;;;5.03;1.40;;;11.30;75.60;;;;;;5006376;28;20026;-96
2021/05/04 10:42:14;;;;;;;6.93;1.70;;;11.50;74.80;;;;;;5008639;28;20050;-96
2021/05/04 10:45:08;;;;;;;4.38;1.35;;;11.50;72.60;;;;;;5006803;28;20102;-94
2021/05/04 10:47:42;;;;;;;8.10;1.73;;;11.50;71.70;;;;;;5008294;28;20022;-94
2021/05/04 10:50:09;;;;;;;4.72;1.40;;;11.50;71.00;;;;;;4982283;28;20034;-95
2021/05/04 10:53:07;;;;;;;2.55;1.20;;;11.50;70.70;;;;;;4994016;28;20042;-94
2021/05/04 10:55:51;;;;;;;4.05;1.42;;;11.40;69.30;;;;;;4962678;28;20030;-96
2021/05/04 10:58:17;;;;;;;3.00;0.98;;;11.50;69.40;;;;;;4991359;28;20026;-92
2021/05/04 11:00:48;;;;;;;3.97;1.10;;;11.50;69.00;;;;;;4996495;28;20124;-96
2021/05/04 11:03:42;;;;;;;4.50;1.10;;;11.50;68.60;;;;;;4997626;28;20034;-95
2021/05/04 11:06:31;;;;;;;1.98;1.02;;;11.50;68.30;;;;;;4994789;28;20049;-94
2021/05/04 11:08:57;;;;;;;2.88;1.08;;;11.30;67.90;;;;;;4991191;28;20018;-92
2021/05/04 11:11:26;;;;;;;3.70;1.30;;;11.30;68.50;;;;;;4992944;28;20037;-93
2021/05/04 11:14:23;;;;;;;3.55;1.20;;;11.50;68.70;;;;;;4977841;28;20073;-93
2021/05/04 11:16:56;;;;;;;6.32;1.30;;;11.70;68.00;;;;;;4988913;28;20062;-92
2021/05/04 11:21:59;;;;;;;2.78;1.10;;;11.70;67.20;;;;;;4994972;28;20125;-92
2021/05/04 11:24:33;;;;;;;3.45;1.40;;;11.70;67.00;;;;;;4981759;28;20491;-94
2021/05/04 11:27:16;;;;;;;4.68;1.30;;;11.60;67.50;;;;;;5014792;28;20033;-91
2021/05/04 11:29:42;;;;;;;;;;;11.40;68.40;;;;;;4998671;28;20384;-94
2021/05/04 11:32:39;;;;;;;2.65;1.08;;;11.40;69.10;;;;;;5000106;28;19989;-93
2021/05/04 11:35:06;;;;;;;3.90;1.30;;;11.50;70.00;;;;;;4975413;28;20034;-92
2021/05/04 11:37:38;;;;;;;2.47;1.00;;;11.70;70.30;;;;;;4992768;28;20030;-93
2021/05/04 11:40:14;;;;;;;2.58;1.27;;;11.70;69.40;;;;;;4964738;28;20362;-92
2021/05/04 11:42:50;;;;;;;3.33;1.30;;;11.70;68.60;;;;;;4994282;28;20030;-92
2021/05/04 11:45:33;;;;;;;4.13;1.52;;;11.80;68.50;;;;;;4981655;28;20050;-91
2021/05/04 11:48:04;;;;;;;3.92;1.20;;;11.70;68.20;;;;;;4999360;28;20026;-89
2021/05/04 11:50:31;;;;;;;3.08;1.23;;;11.70;68.20;;;;;;4978452;28;20369;-91
2021/05/04 11:53:03;;;;;;;4.22;1.30;;;11.70;67.10;;;;;;4997786;28;20027;-92
2021/05/04 11:55:30;;;;;;;4.88;1.40;;;11.60;66.00;;;;;;4997207;28;20053;-91
2021/05/04 11:57:58;;;;;;;3.22;1.25;;;11.60;65.90;;;;;;4990826;28;20023;-92
2021/05/04 12:00:37;;;;;;;4.03;1.40;;;11.70;65.30;;;;;;4976909;28;20084;-92
2021/05/04 12:03:07;;;;;;;1.88;1.00;;;11.70;64.90;;;;;;4977698;28;20027;-92
2021/05/04 12:05:34;;;;;;;4.65;1.67;;;11.80;64.10;;;;;;4993454;28;20039;-91
2021/05/04 12:08:00;;;;;;;3.72;1.38;;;11.80;62.50;;;;;;4977168;28;20492;-92
2021/05/04 12:10:27;;;;;;;2.92;1.13;;;11.90;62.20;;;;;;4970373;28;20044;-90
2021/05/04 12:12:54;;;;;;;2.10;1.10;;;12.10;62.40;;;;;;4981209;28;20046;-89
2021/05/04 12:15:22;;;;;;;5.90;1.42;;;12.30;61.40;;;;;;4976629;28;20034;-92
2021/05/04 12:17:57;;;;;;;2.17;0.90;;;12.40;60.80;;;;;;4978519;28;20018;-91
2021/05/04 12:20:25;;;;;;;2.90;1.25;;;12.30;59.90;;;;;;4978316;28;20034;-91
2021/05/04 12:23:00;;;;;;;3.03;1.40;;;12.30;60.40;;;;;;4975813;28;20022;-91
2021/05/04 12:25:45;;;;;;;3.15;1.20;;;12.10;60.40;;;;;;4987377;28;20042;-91
2021/05/04 12:28:22;;;;;;;2.90;1.15;;;12.10;61.10;;;;;;4994904;28;20077;-91
2021/05/04 12:30:54;;;;;;;2.80;1.20;;;12.10;61.10;;;;;;4994062;28;20023;-91
2021/05/04 12:33:21;;;;;;;2.93;1.17;;;12.00;60.90;;;;;;4995920;28;20113;-92
2021/05/04 12:35:55;;;;;;;4.10;1.30;;;11.90;60.80;;;;;;4982586;28;20026;-90
2021/05/04 12:41:15;;;;;;;5.05;1.02;;;11.80;60.00;;;;;;5000446;28;20034;-91
2021/05/04 12:44:06;;;;;;;3.80;1.63;;;11.80;59.80;;;;;;4989153;28;20026;-92
2021/05/04 12:46:32;;;;;;;2.28;1.10;;;11.80;60.00;;;;;;4976460;28;20076;-93
2021/05/04 12:49:02;;;;;;;3.97;1.20;;;11.60;61.60;;;;;;4977312;28;20022;-95
2021/05/04 12:51:32;;;;;;;5.15;1.30;;;11.50;62.60;;;;;;4987182;28;20038;-92
2021/05/04 12:54:17;;;;;;;3.97;1.25;;;11.50;63.00;;;;;;4992769;28;20133;-93
2021/05/04 12:56:54;;;;;;;3.47;1.30;;;11.60;63.40;;;;;;4998195;28;20387;-94
2021/05/04 12:59:30;;;;;;;4.05;1.38;;;11.80;62.50;;;;;;4994467;28;20033;-96
2021/05/04 13:02:30;;;;;;;2.47;1.23;;;11.90;62.30;;;;;;5008363;28;20053;-96
2021/05/04 13:05:06;;;;;;;3.95;1.30;;;11.90;61.20;;;;;;5016028;28;20045;-96
2021/05/04 13:07:54;;;;;;;5.75;1.48;;;11.80;60.90;;;;;;5120978;23;20091;-93
2021/05/04 13:30:26;;;;;;;2.83;1.17;;;11.30;64.50;;;;;;5009245;28;20044;-96
2021/05/04 13:32:55;;;;;;;2.53;1.17;;;11.20;66.00;;;;;;5000559;28;20014;-96